sensor_id;sensor_type;location;lat;lon;timestamp;P1;durP1;ratioP1;P2;durP2;ratioP2
62121;SDS011;48108;47.532;19.084;2022-08-19T04:06:46;10.52;;;6.18;;
62121;SDS011;48108;47.532;19.084;2022-08-19T04:09:49;9.20;;;5.97;;
62121;SDS011;48108;47.532;19.084;2022-08-19T04:12:54;8.98;;;6.32;;
62121;SDS011;48108;47.532;19.084;2022-08-19T04:15:56;11.30;;;5.97;;
62121;SDS011;48108;47.532;19.084;2022-08-19T04:18:59;8.90;;;6.30;;
62121;SDS011;48108;47.532;19.084;2022-08-19T04:22:04;9.57;;;6.03;;
62121;SDS011;48108;47.532;19.084;2022-08-19T04:25:07;7.78;;;5.68;;
62121;SDS011;48108;47.532;19.084;2022-08-19T04:28:11;8.27;;;5.93;;
62121;SDS011;48108;47.532;19.084;2022-08-19T04:31:15;8.07;;;5.68;;
62121;SDS011;48108;47.532;19.084;2022-08-19T04:34:21;8.40;;;6.10;;
62121;SDS011;48108;47.532;19.084;2022-08-19T04:37:26;8.27;;;5.40;;
62121;SDS011;48108;47.532;19.084;2022-08-19T04:40:44;7.95;;;6.03;;
62121;SDS011;48108;47.532;19.084;2022-08-19T04:44:07;10.23;;;5.90;;
62121;SDS011;48108;47.532;19.084;2022-08-19T04:47:11;6.40;;;5.55;;
62121;SDS011;48108;47.532;19.084;2022-08-19T04:50:13;8.82;;;5.90;;
62121;SDS011;48108;47.532;19.084;2022-08-19T04:53:19;7.72;;;5.55;;
62121;SDS011;48108;47.532;19.084;2022-08-19T04:56:21;8.23;;;5.78;;
62121;SDS011;48108;47.532;19.084;2022-08-19T04:59:25;6.78;;;5.68;;
62121;SDS011;48108;47.532;19.084;2022-08-19T05:02:27;9.30;;;6.28;;
62121;SDS011;48108;47.532;19.084;2022-08-19T05:05:31;9.05;;;5.70;;
62121;SDS011;48108;47.532;19.084;2022-08-19T05:08:46;9.60;;;6.32;;
62121;SDS011;48108;47.532;19.084;2022-08-19T05:11:50;8.27;;;5.70;;
62121;SDS011;48108;47.532;19.084;2022-08-19T05:14:56;8.68;;;5.85;;
62121;SDS011;48108;47.532;19.084;2022-08-19T05:18:00;32.92;;;7.03;;
62121;SDS011;48108;47.532;19.084;2022-08-19T05:21:22;24.48;;;6.32;;
62121;SDS011;48108;47.532;19.084;2022-08-19T05:24:44;9.63;;;5.78;;
62121;SDS011;48108;47.532;19.084;2022-08-19T05:28:06;8.18;;;5.43;;
62121;SDS011;48108;47.532;19.084;2022-08-19T05:31:09;7.95;;;5.50;;
62121;SDS011;48108;47.532;19.084;2022-08-19T05:34:12;12.63;;;6.32;;
62121;SDS011;48108;47.532;19.084;2022-08-19T05:37:22;8.88;;;6.68;;
62121;SDS011;48108;47.532;19.084;2022-08-19T05:40:25;9.27;;;6.57;;
62121;SDS011;48108;47.532;19.084;2022-08-19T05:43:30;7.40;;;5.28;;
62121;SDS011;48108;47.532;19.084;2022-08-19T05:46:33;6.90;;;5.53;;
62121;SDS011;48108;47.532;19.084;2022-08-19T05:49:40;10.15;;;6.15;;
62121;SDS011;48108;47.532;19.084;2022-08-19T05:52:44;10.45;;;5.37;;
62121;SDS011;48108;47.532;19.084;2022-08-19T05:55:52;9.05;;;5.65;;
62121;SDS011;48108;47.532;19.084;2022-08-19T05:58:58;24.12;;;6.70;;
62121;SDS011;48108;47.532;19.084;2022-08-19T06:02:02;8.13;;;6.50;;
62121;SDS011;48108;47.532;19.084;2022-08-19T06:05:07;20.25;;;6.03;;
62121;SDS011;48108;47.532;19.084;2022-08-19T06:08:11;13.20;;;5.72;;
62121;SDS011;48108;47.532;19.084;2022-08-19T06:11:15;50.45;;;7.75;;
62121;SDS011;48108;47.532;19.084;2022-08-19T06:14:22;15.63;;;6.07;;
62121;SDS011;48108;47.532;19.084;2022-08-19T06:17:29;11.05;;;6.00;;
62121;SDS011;48108;47.532;19.084;2022-08-19T06:20:33;7.07;;;5.12;;
62121;SDS011;48108;47.532;19.084;2022-08-19T06:23:56;10.52;;;5.30;;
62121;SDS011;48108;47.532;19.084;2022-08-19T06:27:00;13.38;;;5.82;;
62121;SDS011;48108;47.532;19.084;2022-08-19T06:30:04;13.55;;;5.15;;
62121;SDS011;48108;47.532;19.084;2022-08-19T06:33:07;10.27;;;5.60;;
62121;SDS011;48108;47.532;19.084;2022-08-19T06:36:24;11.35;;;4.90;;
62121;SDS011;48108;47.532;19.084;2022-08-19T06:39:36;9.02;;;5.65;;
62121;SDS011;48108;47.532;19.084;2022-08-19T06:42:41;7.70;;;5.10;;
62121;SDS011;48108;47.532;19.084;2022-08-19T06:45:55;6.62;;;4.55;;
62121;SDS011;48108;47.532;19.084;2022-08-19T06:49:00;11.90;;;5.15;;
62121;SDS011;48108;47.532;19.084;2022-08-19T06:52:04;9.50;;;4.82;;
62121;SDS011;48108;47.532;19.084;2022-08-19T06:55:08;8.88;;;5.30;;
62121;SDS011;48108;47.532;19.084;2022-08-19T06:58:11;7.50;;;4.62;;
62121;SDS011;48108;47.532;19.084;2022-08-19T07:01:14;8.43;;;5.10;;
62121;SDS011;48108;47.532;19.084;2022-08-19T07:04:18;5.97;;;4.55;;
62121;SDS011;48108;47.532;19.084;2022-08-19T07:07:24;6.65;;;4.60;;
62121;SDS011;48108;47.532;19.084;2022-08-19T07:10:27;6.05;;;4.68;;
62121;SDS011;48108;47.532;19.084;2022-08-19T07:13:31;6.30;;;4.53;;
62121;SDS011;48108;47.532;19.084;2022-08-19T07:16:39;9.43;;;4.80;;
62121;SDS011;48108;47.532;19.084;2022-08-19T07:19:44;6.87;;;5.07;;
62121;SDS011;48108;47.532;19.084;2022-08-19T07:22:48;5.03;;;4.20;;
62121;SDS011;48108;47.532;19.084;2022-08-19T07:25:51;7.37;;;4.10;;
62121;SDS011;48108;47.532;19.084;2022-08-19T07:28:55;8.05;;;4.55;;
62121;SDS011;48108;47.532;19.084;2022-08-19T07:32:00;7.62;;;4.90;;
62121;SDS011;48108;47.532;19.084;2022-08-19T07:35:04;4.82;;;4.30;;
62121;SDS011;48108;47.532;19.084;2022-08-19T07:38:08;9.57;;;5.40;;
62121;SDS011;48108;47.532;19.084;2022-08-19T07:41:13;5.75;;;4.20;;
62121;SDS011;48108;47.532;19.084;2022-08-19T07:44:18;4.25;;;3.85;;
62121;SDS011;48108;47.532;19.084;2022-08-19T07:47:22;5.25;;;3.75;;
62121;SDS011;48108;47.532;19.084;2022-08-19T07:50:45;5.75;;;4.28;;
62121;SDS011;48108;47.532;19.084;2022-08-19T07:53:50;6.90;;;4.20;;
62121;SDS011;48108;47.532;19.084;2022-08-19T07:56:53;6.85;;;3.87;;
62121;SDS011;48108;47.532;19.084;2022-08-19T07:59:56;7.30;;;4.07;;
62121;SDS011;48108;47.532;19.084;2022-08-19T08:02:59;6.82;;;3.70;;
62121;SDS011;48108;47.532;19.084;2022-08-19T08:06:02;17.27;;;4.50;;
62121;SDS011;48108;47.532;19.084;2022-08-19T08:09:31;4.47;;;3.92;;
62121;SDS011;48108;47.532;19.084;2022-08-19T08:12:40;14.00;;;4.72;;
62121;SDS011;48108;47.532;19.084;2022-08-19T08:15:43;4.40;;;3.92;;
62121;SDS011;48108;47.532;19.084;2022-08-19T08:18:47;5.57;;;4.05;;
62121;SDS011;48108;47.532;19.084;2022-08-19T08:21:53;4.25;;;3.62;;
62121;SDS011;48108;47.532;19.084;2022-08-19T08:25:00;6.40;;;4.15;;
62121;SDS011;48108;47.532;19.084;2022-08-19T08:28:07;4.85;;;3.58;;
62121;SDS011;48108;47.532;19.084;2022-08-19T08:31:19;4.78;;;3.40;;
62121;SDS011;48108;47.532;19.084;2022-08-19T08:34:22;10.20;;;3.97;;
62121;SDS011;48108;47.532;19.084;2022-08-19T08:37:25;8.50;;;3.80;;
62121;SDS011;48108;47.532;19.084;2022-08-19T08:40:29;9.18;;;3.92;;
62121;SDS011;48108;47.532;19.084;2022-08-19T08:43:40;5.53;;;3.80;;
62121;SDS011;48108;47.532;19.084;2022-08-19T08:46:51;6.40;;;3.60;;
62121;SDS011;48108;47.532;19.084;2022-08-19T08:49:59;5.03;;;3.35;;
62121;SDS011;48108;47.532;19.084;2022-08-19T08:53:07;6.72;;;4.00;;
62121;SDS011;48108;47.532;19.084;2022-08-19T08:56:12;4.50;;;3.20;;
62121;SDS011;48108;47.532;19.084;2022-08-19T08:59:24;4.32;;;3.30;;
62121;SDS011;48108;47.532;19.084;2022-08-19T09:02:34;10.43;;;4.00;;
62121;SDS011;48108;47.532;19.084;2022-08-19T09:09:04;4.37;;;3.55;;
62121;SDS011;48108;47.532;19.084;2022-08-19T09:15:30;4.00;;;3.33;;
62121;SDS011;48108;47.532;19.084;2022-08-19T09:18:45;3.85;;;3.45;;
62121;SDS011;48108;47.532;19.084;2022-08-19T09:21:51;4.15;;;3.58;;
62121;SDS011;48108;47.532;19.084;2022-08-19T09:24:54;4.80;;;3.45;;
62121;SDS011;48108;47.532;19.084;2022-08-19T09:27:57;7.43;;;3.47;;
62121;SDS011;48108;47.532;19.084;2022-08-19T09:31:24;5.00;;;3.37;;
62121;SDS011;48108;47.532;19.084;2022-08-19T09:34:28;4.75;;;3.30;;
62121;SDS011;48108;47.532;19.084;2022-08-19T09:37:39;6.32;;;3.50;;
62121;SDS011;48108;47.532;19.084;2022-08-19T09:40:42;5.37;;;3.55;;
62121;SDS011;48108;47.532;19.084;2022-08-19T09:43:46;6.47;;;3.60;;
62121;SDS011;48108;47.532;19.084;2022-08-19T09:46:51;4.68;;;3.55;;
62121;SDS011;48108;47.532;19.084;2022-08-19T09:49:54;5.65;;;3.30;;
62121;SDS011;48108;47.532;19.084;2022-08-19T09:52:57;4.70;;;3.30;;
62121;SDS011;48108;47.532;19.084;2022-08-19T09:56:01;8.90;;;3.40;;
62121;SDS011;48108;47.532;19.084;2022-08-19T09:59:05;4.28;;;3.60;;
62121;SDS011;48108;47.532;19.084;2022-08-19T10:02:09;4.65;;;3.50;;
62121;SDS011;48108;47.532;19.084;2022-08-19T10:05:14;17.12;;;4.45;;
62121;SDS011;48108;47.532;19.084;2022-08-19T10:08:36;4.25;;;3.30;;
62121;SDS011;48108;47.532;19.084;2022-08-19T10:11:40;3.85;;;3.25;;
62121;SDS011;48108;47.532;19.084;2022-08-19T10:14:53;9.68;;;3.22;;
62121;SDS011;48108;47.532;19.084;2022-08-19T10:17:57;79.87;;;10.50;;
62121;SDS011;48108;47.532;19.084;2022-08-19T10:21:07;6.40;;;3.03;;
62121;SDS011;48108;47.532;19.084;2022-08-19T10:24:16;8.57;;;3.47;;
62121;SDS011;48108;47.532;19.084;2022-08-19T10:27:19;4.93;;;3.45;;
62121;SDS011;48108;47.532;19.084;2022-08-19T10:30:23;6.30;;;2.87;;
62121;SDS011;48108;47.532;19.084;2022-08-19T10:33:26;13.27;;;3.20;;
62121;SDS011;48108;47.532;19.084;2022-08-19T10:36:50;6.18;;;3.28;;
62121;SDS011;48108;47.532;19.084;2022-08-19T10:40:02;4.80;;;3.00;;
62121;SDS011;48108;47.532;19.084;2022-08-19T10:43:08;5.75;;;3.10;;
62121;SDS011;48108;47.532;19.084;2022-08-19T10:46:14;8.73;;;3.10;;
62121;SDS011;48108;47.532;19.084;2022-08-19T10:49:20;15.27;;;3.95;;
62121;SDS011;48108;47.532;19.084;2022-08-19T10:52:23;4.07;;;2.80;;
62121;SDS011;48108;47.532;19.084;2022-08-19T10:55:40;5.03;;;3.22;;
62121;SDS011;48108;47.532;19.084;2022-08-19T10:59:01;5.95;;;3.97;;
62121;SDS011;48108;47.532;19.084;2022-08-19T11:02:06;5.20;;;2.83;;
62121;SDS011;48108;47.532;19.084;2022-08-19T11:05:12;3.62;;;3.25;;
62121;SDS011;48108;47.532;19.084;2022-08-19T11:08:17;18.33;;;3.40;;
62121;SDS011;48108;47.532;19.084;2022-08-19T11:14:28;7.68;;;2.85;;
62121;SDS011;48108;47.532;19.084;2022-08-19T11:17:35;5.78;;;3.28;;
62121;SDS011;48108;47.532;19.084;2022-08-19T11:20:39;3.87;;;3.12;;
62121;SDS011;48108;47.532;19.084;2022-08-19T11:23:41;3.55;;;2.60;;
62121;SDS011;48108;47.532;19.084;2022-08-19T11:26:44;13.23;;;3.30;;
62121;SDS011;48108;47.532;19.084;2022-08-19T11:29:48;6.43;;;2.92;;
62121;SDS011;48108;47.532;19.084;2022-08-19T11:32:51;6.30;;;3.30;;
62121;SDS011;48108;47.532;19.084;2022-08-19T11:35:53;14.10;;;3.95;;
62121;SDS011;48108;47.532;19.084;2022-08-19T11:38:56;4.87;;;3.53;;
62121;SDS011;48108;47.532;19.084;2022-08-19T11:41:59;3.97;;;2.75;;
62121;SDS011;48108;47.532;19.084;2022-08-19T11:45:05;7.15;;;3.60;;
62121;SDS011;48108;47.532;19.084;2022-08-19T11:48:08;9.75;;;3.65;;
62121;SDS011;48108;47.532;19.084;2022-08-19T11:51:13;5.35;;;3.37;;
62121;SDS011;48108;47.532;19.084;2022-08-19T11:54:18;4.10;;;2.75;;
62121;SDS011;48108;47.532;19.084;2022-08-19T11:57:21;3.45;;;2.72;;
62121;SDS011;48108;47.532;19.084;2022-08-19T12:00:23;6.05;;;3.00;;
62121;SDS011;48108;47.532;19.084;2022-08-19T12:03:26;4.80;;;3.17;;
62121;SDS011;48108;47.532;19.084;2022-08-19T12:06:31;7.12;;;3.00;;
62121;SDS011;48108;47.532;19.084;2022-08-19T12:09:36;5.07;;;3.10;;
62121;SDS011;48108;47.532;19.084;2022-08-19T12:12:43;4.80;;;3.10;;
62121;SDS011;48108;47.532;19.084;2022-08-19T12:15:56;6.62;;;4.10;;
62121;SDS011;48108;47.532;19.084;2022-08-19T12:19:00;6.40;;;3.47;;
62121;SDS011;48108;47.532;19.084;2022-08-19T12:22:06;12.20;;;3.80;;
62121;SDS011;48108;47.532;19.084;2022-08-19T12:25:10;7.70;;;4.00;;
62121;SDS011;48108;47.532;19.084;2022-08-19T12:28:14;11.20;;;3.65;;
62121;SDS011;48108;47.532;19.084;2022-08-19T12:31:17;3.42;;;3.03;;
62121;SDS011;48108;47.532;19.084;2022-08-19T12:34:21;8.65;;;4.62;;
62121;SDS011;48108;47.532;19.084;2022-08-19T12:37:24;13.57;;;6.90;;
62121;SDS011;48108;47.532;19.084;2022-08-19T12:40:27;7.75;;;4.22;;
62121;SDS011;48108;47.532;19.084;2022-08-19T12:43:30;8.10;;;4.18;;
62121;SDS011;48108;47.532;19.084;2022-08-19T12:46:33;5.25;;;4.53;;
62121;SDS011;48108;47.532;19.084;2022-08-19T12:49:40;5.50;;;3.95;;
62121;SDS011;48108;47.532;19.084;2022-08-19T12:52:56;5.47;;;4.47;;
62121;SDS011;48108;47.532;19.084;2022-08-19T12:56:00;7.75;;;4.40;;
62121;SDS011;48108;47.532;19.084;2022-08-19T12:59:03;5.75;;;4.90;;
62121;SDS011;48108;47.532;19.084;2022-08-19T13:02:07;9.10;;;4.97;;
62121;SDS011;48108;47.532;19.084;2022-08-19T13:05:11;13.48;;;5.72;;
62121;SDS011;48108;47.532;19.084;2022-08-19T13:08:18;54.95;;;8.20;;
62121;SDS011;48108;47.532;19.084;2022-08-19T13:11:21;8.63;;;5.57;;
62121;SDS011;48108;47.532;19.084;2022-08-19T13:14:26;13.87;;;6.10;;
62121;SDS011;48108;47.532;19.084;2022-08-19T13:17:29;9.00;;;6.10;;
62121;SDS011;48108;47.532;19.084;2022-08-19T13:20:32;10.65;;;6.25;;
62121;SDS011;48108;47.532;19.084;2022-08-19T13:23:35;12.05;;;5.47;;
62121;SDS011;48108;47.532;19.084;2022-08-19T13:26:38;6.78;;;5.50;;
62121;SDS011;48108;47.532;19.084;2022-08-19T13:29:41;7.68;;;5.72;;
62121;SDS011;48108;47.532;19.084;2022-08-19T13:33:03;10.80;;;5.37;;
62121;SDS011;48108;47.532;19.084;2022-08-19T13:36:12;8.45;;;5.93;;
62121;SDS011;48108;47.532;19.084;2022-08-19T13:39:16;8.77;;;4.78;;
62121;SDS011;48108;47.532;19.084;2022-08-19T13:42:19;7.62;;;5.05;;
62121;SDS011;48108;47.532;19.084;2022-08-19T13:45:22;11.25;;;4.70;;
62121;SDS011;48108;47.532;19.084;2022-08-19T13:48:26;4.90;;;3.77;;
62121;SDS011;48108;47.532;19.084;2022-08-19T13:51:29;7.32;;;3.33;;
62121;SDS011;48108;47.532;19.084;2022-08-19T13:54:35;8.10;;;2.90;;
62121;SDS011;48108;47.532;19.084;2022-08-19T13:57:38;5.05;;;2.90;;
62121;SDS011;48108;47.532;19.084;2022-08-19T14:00:42;5.03;;;3.00;;
62121;SDS011;48108;47.532;19.084;2022-08-19T14:03:47;4.90;;;2.90;;
62121;SDS011;48108;47.532;19.084;2022-08-19T14:06:50;6.47;;;3.22;;
62121;SDS011;48108;47.532;19.084;2022-08-19T14:09:53;7.97;;;3.53;;
62121;SDS011;48108;47.532;19.084;2022-08-19T14:12:56;3.70;;;3.05;;
62121;SDS011;48108;47.532;19.084;2022-08-19T14:16:00;10.45;;;3.78;;
62121;SDS011;48108;47.532;19.084;2022-08-19T14:19:04;12.35;;;2.75;;
62121;SDS011;48108;47.532;19.084;2022-08-19T14:22:07;13.55;;;3.20;;
62121;SDS011;48108;47.532;19.084;2022-08-19T14:25:13;5.25;;;2.70;;
62121;SDS011;48108;47.532;19.084;2022-08-19T14:28:18;10.32;;;3.17;;
62121;SDS011;48108;47.532;19.084;2022-08-19T14:31:27;11.12;;;3.03;;
62121;SDS011;48108;47.532;19.084;2022-08-19T14:34:32;6.65;;;2.60;;
62121;SDS011;48108;47.532;19.084;2022-08-19T14:37:36;5.85;;;2.78;;
62121;SDS011;48108;47.532;19.084;2022-08-19T14:40:47;6.03;;;3.00;;
62121;SDS011;48108;47.532;19.084;2022-08-19T14:43:51;5.93;;;2.75;;
62121;SDS011;48108;47.532;19.084;2022-08-19T14:46:55;6.07;;;2.40;;
62121;SDS011;48108;47.532;19.084;2022-08-19T14:49:58;20.55;;;3.47;;
62121;SDS011;48108;47.532;19.084;2022-08-19T14:53:24;7.45;;;2.55;;
62121;SDS011;48108;47.532;19.084;2022-08-19T14:56:30;10.00;;;2.92;;
62121;SDS011;48108;47.532;19.084;2022-08-19T14:59:34;7.35;;;2.20;;
62121;SDS011;48108;47.532;19.084;2022-08-19T15:02:37;5.72;;;1.92;;
62121;SDS011;48108;47.532;19.084;2022-08-19T15:05:40;15.55;;;3.17;;
62121;SDS011;48108;47.532;19.084;2022-08-19T15:08:43;7.45;;;2.42;;
62121;SDS011;48108;47.532;19.084;2022-08-19T15:11:47;8.52;;;2.60;;
62121;SDS011;48108;47.532;19.084;2022-08-19T15:14:51;4.28;;;2.20;;
62121;SDS011;48108;47.532;19.084;2022-08-19T15:17:57;5.85;;;2.17;;
62121;SDS011;48108;47.532;19.084;2022-08-19T15:21:04;9.52;;;2.20;;
62121;SDS011;48108;47.532;19.084;2022-08-19T15:24:07;5.70;;;1.62;;
62121;SDS011;48108;47.532;19.084;2022-08-19T15:27:12;6.70;;;2.25;;
62121;SDS011;48108;47.532;19.084;2022-08-19T15:30:18;4.75;;;2.50;;
